sensor_id;sensor_type;location;lat;lon;timestamp;P1;durP1;ratioP1;P2;durP2;ratioP2
55053;SDS011;40954;45.668;18.980;2023-05-07T00:01:04;9.18;;;8.30;;
55053;SDS011;40954;45.668;18.980;2023-05-07T00:03:31;9.82;;;8.10;;
55053;SDS011;40954;45.668;18.980;2023-05-07T00:05:58;13.77;;;8.75;;
55053;SDS011;40954;45.668;18.980;2023-05-07T00:08:25;11.98;;;8.02;;
55053;SDS011;40954;45.668;18.980;2023-05-07T00:10:51;8.80;;;7.82;;
55053;SDS011;40954;45.668;18.980;2023-05-07T00:13:17;13.55;;;7.70;;
55053;SDS011;40954;45.668;18.980;2023-05-07T00:15:43;8.82;;;7.93;;
55053;SDS011;40954;45.668;18.980;2023-05-07T00:18:09;12.10;;;8.57;;
55053;SDS011;40954;45.668;18.980;2023-05-07T00:20:36;10.30;;;7.55;;
55053;SDS011;40954;45.668;18.980;2023-05-07T00:23:02;9.00;;;8.05;;
55053;SDS011;40954;45.668;18.980;2023-05-07T00:25:28;12.30;;;7.65;;
55053;SDS011;40954;45.668;18.980;2023-05-07T00:27:54;9.30;;;7.75;;
55053;SDS011;40954;45.668;18.980;2023-05-07T00:30:20;10.38;;;8.85;;
55053;SDS011;40954;45.668;18.980;2023-05-07T00:32:46;13.70;;;9.02;;
55053;SDS011;40954;45.668;18.980;2023-05-07T00:35:14;10.85;;;8.07;;
55053;SDS011;40954;45.668;18.980;2023-05-07T00:37:40;11.05;;;8.82;;
55053;SDS011;40954;45.668;18.980;2023-05-07T00:40:06;10.07;;;8.38;;
55053;SDS011;40954;45.668;18.980;2023-05-07T00:42:33;10.93;;;7.75;;
55053;SDS011;40954;45.668;18.980;2023-05-07T00:44:59;9.65;;;8.13;;
55053;SDS011;40954;45.668;18.980;2023-05-07T00:47:25;10.23;;;8.50;;
55053;SDS011;40954;45.668;18.980;2023-05-07T00:49:51;13.90;;;8.25;;
55053;SDS011;40954;45.668;18.980;2023-05-07T00:52:17;12.95;;;8.88;;
55053;SDS011;40954;45.668;18.980;2023-05-07T00:54:45;9.05;;;8.15;;
55053;SDS011;40954;45.668;18.980;2023-05-07T00:57:11;15.90;;;8.35;;
55053;SDS011;40954;45.668;18.980;2023-05-07T00:59:37;9.27;;;8.38;;
55053;SDS011;40954;45.668;18.980;2023-05-07T01:02:05;10.85;;;8.45;;
55053;SDS011;40954;45.668;18.980;2023-05-07T01:04:31;19.15;;;8.38;;
55053;SDS011;40954;45.668;18.980;2023-05-07T01:06:58;8.98;;;7.70;;
55053;SDS011;40954;45.668;18.980;2023-05-07T01:09:24;10.10;;;8.63;;
55053;SDS011;40954;45.668;18.980;2023-05-07T01:11:50;9.77;;;8.77;;
55053;SDS011;40954;45.668;18.980;2023-05-07T01:14:17;11.70;;;8.38;;
55053;SDS011;40954;45.668;18.980;2023-05-07T01:16:44;10.45;;;8.10;;
55053;SDS011;40954;45.668;18.980;2023-05-07T01:19:11;11.23;;;8.55;;
55053;SDS011;40954;45.668;18.980;2023-05-07T01:21:42;15.52;;;8.27;;
55053;SDS011;40954;45.668;18.980;2023-05-07T01:24:11;8.95;;;8.02;;
55053;SDS011;40954;45.668;18.980;2023-05-07T01:26:37;9.32;;;8.30;;
55053;SDS011;40954;45.668;18.980;2023-05-07T01:29:03;11.00;;;8.48;;
55053;SDS011;40954;45.668;18.980;2023-05-07T01:31:29;11.68;;;7.85;;
55053;SDS011;40954;45.668;18.980;2023-05-07T01:33:56;8.90;;;8.00;;
55053;SDS011;40954;45.668;18.980;2023-05-07T01:36:23;12.98;;;8.32;;
55053;SDS011;40954;45.668;18.980;2023-05-07T01:38:52;12.23;;;8.40;;
55053;SDS011;40954;45.668;18.980;2023-05-07T01:41:19;10.38;;;9.10;;
55053;SDS011;40954;45.668;18.980;2023-05-07T01:43:46;11.13;;;8.45;;
55053;SDS011;40954;45.668;18.980;2023-05-07T01:46:13;12.05;;;8.27;;
55053;SDS011;40954;45.668;18.980;2023-05-07T01:48:40;10.43;;;9.13;;
55053;SDS011;40954;45.668;18.980;2023-05-07T01:51:06;10.00;;;9.00;;
55053;SDS011;40954;45.668;18.980;2023-05-07T01:53:39;9.23;;;8.18;;
55053;SDS011;40954;45.668;18.980;2023-05-07T01:56:10;9.90;;;8.90;;
55053;SDS011;40954;45.668;18.980;2023-05-07T01:58:36;11.68;;;9.32;;
55053;SDS011;40954;45.668;18.980;2023-05-07T02:01:02;10.25;;;8.23;;
55053;SDS011;40954;45.668;18.980;2023-05-07T02:03:28;9.40;;;8.35;;
55053;SDS011;40954;45.668;18.980;2023-05-07T02:05:55;10.68;;;8.27;;
55053;SDS011;40954;45.668;18.980;2023-05-07T02:08:21;11.85;;;9.02;;
55053;SDS011;40954;45.668;18.980;2023-05-07T02:10:47;9.00;;;8.07;;
55053;SDS011;40954;45.668;18.980;2023-05-07T02:13:14;9.45;;;8.55;;
55053;SDS011;40954;45.668;18.980;2023-05-07T02:15:40;8.23;;;7.43;;
55053;SDS011;40954;45.668;18.980;2023-05-07T02:18:08;9.85;;;8.07;;
55053;SDS011;40954;45.668;18.980;2023-05-07T02:20:34;8.70;;;7.80;;
55053;SDS011;40954;45.668;18.980;2023-05-07T02:23:00;9.30;;;8.32;;
55053;SDS011;40954;45.668;18.980;2023-05-07T02:25:26;9.57;;;8.57;;
55053;SDS011;40954;45.668;18.980;2023-05-07T02:27:52;9.30;;;7.85;;
55053;SDS011;40954;45.668;18.980;2023-05-07T02:30:18;8.45;;;7.75;;
55053;SDS011;40954;45.668;18.980;2023-05-07T02:32:46;9.10;;;8.23;;
55053;SDS011;40954;45.668;18.980;2023-05-07T02:35:12;12.68;;;8.38;;
55053;SDS011;40954;45.668;18.980;2023-05-07T02:37:38;12.50;;;8.77;;
55053;SDS011;40954;45.668;18.980;2023-05-07T02:40:04;8.80;;;7.95;;
55053;SDS011;40954;45.668;18.980;2023-05-07T02:42:30;10.68;;;8.57;;
55053;SDS011;40954;45.668;18.980;2023-05-07T02:44:56;10.50;;;8.43;;
55053;SDS011;40954;45.668;18.980;2023-05-07T02:47:22;8.95;;;7.97;;
55053;SDS011;40954;45.668;18.980;2023-05-07T02:49:48;11.23;;;7.90;;
55053;SDS011;40954;45.668;18.980;2023-05-07T02:52:15;10.75;;;8.43;;
55053;SDS011;40954;45.668;18.980;2023-05-07T02:54:41;10.93;;;8.45;;
55053;SDS011;40954;45.668;18.980;2023-05-07T02:57:07;9.13;;;8.20;;
55053;SDS011;40954;45.668;18.980;2023-05-07T02:59:33;8.88;;;8.07;;
55053;SDS011;40954;45.668;18.980;2023-05-07T03:01:59;9.32;;;8.35;;
55053;SDS011;40954;45.668;18.980;2023-05-07T03:04:25;10.70;;;8.63;;
55053;SDS011;40954;45.668;18.980;2023-05-07T03:06:51;10.55;;;8.75;;
55053;SDS011;40954;45.668;18.980;2023-05-07T03:09:17;13.23;;;8.68;;
55053;SDS011;40954;45.668;18.980;2023-05-07T03:11:43;12.10;;;8.55;;
55053;SDS011;40954;45.668;18.980;2023-05-07T03:14:09;9.50;;;8.48;;
55053;SDS011;40954;45.668;18.980;2023-05-07T03:16:35;14.13;;;9.23;;
55053;SDS011;40954;45.668;18.980;2023-05-07T03:19:01;12.05;;;9.52;;
55053;SDS011;40954;45.668;18.980;2023-05-07T03:21:27;10.13;;;9.02;;
55053;SDS011;40954;45.668;18.980;2023-05-07T03:23:53;11.40;;;10.23;;
55053;SDS011;40954;45.668;18.980;2023-05-07T03:26:19;14.55;;;10.75;;
55053;SDS011;40954;45.668;18.980;2023-05-07T03:28:46;14.52;;;10.52;;
55053;SDS011;40954;45.668;18.980;2023-05-07T03:31:12;13.18;;;10.65;;
55053;SDS011;40954;45.668;18.980;2023-05-07T03:33:47;13.65;;;10.57;;
55053;SDS011;40954;45.668;18.980;2023-05-07T03:36:14;16.00;;;11.05;;
55053;SDS011;40954;45.668;18.980;2023-05-07T03:38:40;11.40;;;10.20;;
55053;SDS011;40954;45.668;18.980;2023-05-07T03:41:06;12.40;;;9.90;;
55053;SDS011;40954;45.668;18.980;2023-05-07T03:43:32;13.88;;;10.13;;
55053;SDS011;40954;45.668;18.980;2023-05-07T03:45:58;11.32;;;10.23;;
55053;SDS011;40954;45.668;18.980;2023-05-07T03:48:24;10.90;;;9.90;;
55053;SDS011;40954;45.668;18.980;2023-05-07T03:50:51;12.07;;;8.77;;
55053;SDS011;40954;45.668;18.980;2023-05-07T03:53:17;13.88;;;9.50;;
55053;SDS011;40954;45.668;18.980;2023-05-07T03:55:43;12.50;;;9.75;;
55053;SDS011;40954;45.668;18.980;2023-05-07T03:58:09;13.10;;;9.57;;
55053;SDS011;40954;45.668;18.980;2023-05-07T04:00:35;10.73;;;9.63;;
55053;SDS011;40954;45.668;18.980;2023-05-07T04:03:03;10.38;;;8.80;;
55053;SDS011;40954;45.668;18.980;2023-05-07T04:05:30;12.52;;;10.20;;
55053;SDS011;40954;45.668;18.980;2023-05-07T04:07:59;12.00;;;9.13;;
55053;SDS011;40954;45.668;18.980;2023-05-07T04:10:26;11.18;;;9.57;;
55053;SDS011;40954;45.668;18.980;2023-05-07T04:12:53;10.55;;;9.48;;
55053;SDS011;40954;45.668;18.980;2023-05-07T04:15:19;11.43;;;9.07;;
55053;SDS011;40954;45.668;18.980;2023-05-07T04:17:45;14.95;;;10.35;;
55053;SDS011;40954;45.668;18.980;2023-05-07T04:20:15;10.73;;;9.63;;
55053;SDS011;40954;45.668;18.980;2023-05-07T04:22:41;13.98;;;10.27;;
55053;SDS011;40954;45.668;18.980;2023-05-07T04:25:08;14.65;;;9.57;;
55053;SDS011;40954;45.668;18.980;2023-05-07T04:27:34;11.18;;;9.75;;
55053;SDS011;40954;45.668;18.980;2023-05-07T04:30:01;12.63;;;9.90;;
55053;SDS011;40954;45.668;18.980;2023-05-07T04:32:27;12.75;;;9.52;;
55053;SDS011;40954;45.668;18.980;2023-05-07T04:34:54;11.60;;;9.48;;
55053;SDS011;40954;45.668;18.980;2023-05-07T04:37:20;12.52;;;10.15;;
55053;SDS011;40954;45.668;18.980;2023-05-07T04:39:47;11.23;;;10.15;;
55053;SDS011;40954;45.668;18.980;2023-05-07T04:42:16;11.80;;;9.73;;
55053;SDS011;40954;45.668;18.980;2023-05-07T04:44:42;13.07;;;10.23;;
55053;SDS011;40954;45.668;18.980;2023-05-07T04:47:08;12.20;;;10.07;;
55053;SDS011;40954;45.668;18.980;2023-05-07T04:49:35;13.10;;;9.48;;
55053;SDS011;40954;45.668;18.980;2023-05-07T04:52:01;11.70;;;10.15;;
55053;SDS011;40954;45.668;18.980;2023-05-07T04:54:28;14.20;;;10.15;;
55053;SDS011;40954;45.668;18.980;2023-05-07T04:56:54;16.00;;;11.10;;
55053;SDS011;40954;45.668;18.980;2023-05-07T04:59:20;12.40;;;10.35;;
55053;SDS011;40954;45.668;18.980;2023-05-07T05:01:46;12.75;;;9.80;;
55053;SDS011;40954;45.668;18.980;2023-05-07T05:04:13;17.02;;;10.52;;
55053;SDS011;40954;45.668;18.980;2023-05-07T05:06:39;12.43;;;10.43;;
55053;SDS011;40954;45.668;18.980;2023-05-07T05:09:05;11.88;;;10.52;;
55053;SDS011;40954;45.668;18.980;2023-05-07T05:11:32;12.32;;;11.02;;
55053;SDS011;40954;45.668;18.980;2023-05-07T05:13:59;14.15;;;10.38;;
55053;SDS011;40954;45.668;18.980;2023-05-07T05:16:25;11.70;;;10.18;;
55053;SDS011;40954;45.668;18.980;2023-05-07T05:18:51;12.07;;;10.88;;
55053;SDS011;40954;45.668;18.980;2023-05-07T05:21:19;14.07;;;10.82;;
55053;SDS011;40954;45.668;18.980;2023-05-07T05:23:45;13.90;;;10.73;;
55053;SDS011;40954;45.668;18.980;2023-05-07T05:26:11;16.65;;;10.50;;
55053;SDS011;40954;45.668;18.980;2023-05-07T05:28:38;12.40;;;10.77;;
55053;SDS011;40954;45.668;18.980;2023-05-07T05:31:04;12.00;;;10.65;;
55053;SDS011;40954;45.668;18.980;2023-05-07T05:33:30;12.82;;;10.18;;
55053;SDS011;40954;45.668;18.980;2023-05-07T05:35:56;11.52;;;10.45;;
55053;SDS011;40954;45.668;18.980;2023-05-07T05:38:22;11.02;;;9.90;;
55053;SDS011;40954;45.668;18.980;2023-05-07T05:40:48;12.30;;;10.15;;
55053;SDS011;40954;45.668;18.980;2023-05-07T05:43:14;9.27;;;7.95;;
55053;SDS011;40954;45.668;18.980;2023-05-07T05:45:40;8.80;;;7.90;;
55053;SDS011;40954;45.668;18.980;2023-05-07T05:48:06;8.85;;;7.75;;
55053;SDS011;40954;45.668;18.980;2023-05-07T05:50:33;8.25;;;7.28;;
55053;SDS011;40954;45.668;18.980;2023-05-07T05:53:01;10.40;;;6.55;;
55053;SDS011;40954;45.668;18.980;2023-05-07T05:55:27;10.07;;;7.20;;
55053;SDS011;40954;45.668;18.980;2023-05-07T05:57:53;10.15;;;7.20;;
55053;SDS011;40954;45.668;18.980;2023-05-07T06:00:19;10.00;;;6.72;;
55053;SDS011;40954;45.668;18.980;2023-05-07T06:02:47;7.93;;;6.57;;
55053;SDS011;40954;45.668;18.980;2023-05-07T06:05:13;7.13;;;6.43;;
55053;SDS011;40954;45.668;18.980;2023-05-07T06:07:40;8.90;;;6.65;;
55053;SDS011;40954;45.668;18.980;2023-05-07T06:10:06;11.52;;;6.72;;
55053;SDS011;40954;45.668;18.980;2023-05-07T06:12:32;7.53;;;6.53;;
55053;SDS011;40954;45.668;18.980;2023-05-07T06:14:58;9.93;;;6.63;;
55053;SDS011;40954;45.668;18.980;2023-05-07T06:17:24;7.40;;;6.28;;
55053;SDS011;40954;45.668;18.980;2023-05-07T06:19:50;7.80;;;6.07;;
55053;SDS011;40954;45.668;18.980;2023-05-07T06:22:16;6.55;;;5.95;;
55053;SDS011;40954;45.668;18.980;2023-05-07T06:24:43;7.38;;;5.68;;
55053;SDS011;40954;45.668;18.980;2023-05-07T06:27:09;7.57;;;6.45;;
55053;SDS011;40954;45.668;18.980;2023-05-07T06:29:35;7.40;;;6.28;;
55053;SDS011;40954;45.668;18.980;2023-05-07T06:32:10;8.80;;;5.85;;
55053;SDS011;40954;45.668;18.980;2023-05-07T06:34:37;11.77;;;6.30;;
55053;SDS011;40954;45.668;18.980;2023-05-07T06:37:03;8.18;;;6.50;;
55053;SDS011;40954;45.668;18.980;2023-05-07T06:39:29;8.07;;;6.18;;
55053;SDS011;40954;45.668;18.980;2023-05-07T06:41:55;6.20;;;5.38;;
55053;SDS011;40954;45.668;18.980;2023-05-07T06:44:22;10.00;;;6.05;;
55053;SDS011;40954;45.668;18.980;2023-05-07T06:46:48;7.38;;;6.38;;
55053;SDS011;40954;45.668;18.980;2023-05-07T06:49:14;6.30;;;4.95;;
55053;SDS011;40954;45.668;18.980;2023-05-07T06:51:40;11.95;;;5.93;;
55053;SDS011;40954;45.668;18.980;2023-05-07T06:54:06;10.38;;;6.50;;
55053;SDS011;40954;45.668;18.980;2023-05-07T06:56:33;7.50;;;5.78;;
55053;SDS011;40954;45.668;18.980;2023-05-07T06:58:59;6.70;;;5.88;;
55053;SDS011;40954;45.668;18.980;2023-05-07T07:01:26;5.78;;;5.13;;
55053;SDS011;40954;45.668;18.980;2023-05-07T07:03:52;5.85;;;5.25;;
55053;SDS011;40954;45.668;18.980;2023-05-07T07:06:18;5.60;;;5.10;;
55053;SDS011;40954;45.668;18.980;2023-05-07T07:08:44;6.13;;;4.85;;
55053;SDS011;40954;45.668;18.980;2023-05-07T07:11:10;5.40;;;4.90;;
55053;SDS011;40954;45.668;18.980;2023-05-07T07:13:36;6.85;;;4.85;;
55053;SDS011;40954;45.668;18.980;2023-05-07T07:16:03;6.28;;;5.68;;
55053;SDS011;40954;45.668;18.980;2023-05-07T07:18:29;7.28;;;5.10;;
55053;SDS011;40954;45.668;18.980;2023-05-07T07:20:55;5.10;;;4.60;;
55053;SDS011;40954;45.668;18.980;2023-05-07T07:23:21;4.78;;;4.20;;
55053;SDS011;40954;45.668;18.980;2023-05-07T07:25:47;6.30;;;5.13;;
55053;SDS011;40954;45.668;18.980;2023-05-07T07:28:13;7.50;;;6.45;;
55053;SDS011;40954;45.668;18.980;2023-05-07T07:30:39;4.57;;;4.18;;
55053;SDS011;40954;45.668;18.980;2023-05-07T07:33:05;6.90;;;4.43;;
55053;SDS011;40954;45.668;18.980;2023-05-07T07:35:31;4.32;;;3.90;;
55053;SDS011;40954;45.668;18.980;2023-05-07T07:37:58;3.97;;;3.67;;
55053;SDS011;40954;45.668;18.980;2023-05-07T07:40:24;5.72;;;4.07;;
55053;SDS011;40954;45.668;18.980;2023-05-07T07:42:50;3.97;;;3.60;;
55053;SDS011;40954;45.668;18.980;2023-05-07T07:45:16;4.40;;;4.00;;
55053;SDS011;40954;45.668;18.980;2023-05-07T07:47:42;5.38;;;4.57;;
55053;SDS011;40954;45.668;18.980;2023-05-07T07:50:09;10.60;;;4.57;;
55053;SDS011;40954;45.668;18.980;2023-05-07T07:52:35;7.32;;;3.85;;
55053;SDS011;40954;45.668;18.980;2023-05-07T07:55:01;8.70;;;4.10;;
55053;SDS011;40954;45.668;18.980;2023-05-07T07:57:28;6.07;;;4.03;;
55053;SDS011;40954;45.668;18.980;2023-05-07T07:59:54;5.18;;;4.68;;
55053;SDS011;40954;45.668;18.980;2023-05-07T08:02:20;4.00;;;3.55;;
55053;SDS011;40954;45.668;18.980;2023-05-07T08:04:46;4.03;;;3.58;;
55053;SDS011;40954;45.668;18.980;2023-05-07T08:07:12;6.40;;;4.18;;
55053;SDS011;40954;45.668;18.980;2023-05-07T08:09:39;4.68;;;3.85;;
55053;SDS011;40954;45.668;18.980;2023-05-07T08:12:05;5.35;;;4.30;;
55053;SDS011;40954;45.668;18.980;2023-05-07T08:14:32;7.10;;;3.42;;
55053;SDS011;40954;45.668;18.980;2023-05-07T08:16:58;4.03;;;3.45;;
55053;SDS011;40954;45.668;18.980;2023-05-07T08:19:24;4.05;;;3.17;;
55053;SDS011;40954;45.668;18.980;2023-05-07T08:21:50;3.25;;;3.00;;
55053;SDS011;40954;45.668;18.980;2023-05-07T08:24:16;3.78;;;3.47;;
55053;SDS011;40954;45.668;18.980;2023-05-07T08:26:43;4.03;;;3.22;;
55053;SDS011;40954;45.668;18.980;2023-05-07T08:29:10;4.13;;;3.30;;
55053;SDS011;40954;45.668;18.980;2023-05-07T08:31:36;3.92;;;3.63;;
55053;SDS011;40954;45.668;18.980;2023-05-07T08:34:03;4.28;;;3.70;;
55053;SDS011;40954;45.668;18.980;2023-05-07T08:36:30;3.97;;;3.45;;
55053;SDS011;40954;45.668;18.980;2023-05-07T08:38:56;4.07;;;3.40;;
55053;SDS011;40954;45.668;18.980;2023-05-07T08:41:22;5.15;;;3.70;;
55053;SDS011;40954;45.668;18.980;2023-05-07T08:43:48;6.78;;;3.53;;
55053;SDS011;40954;45.668;18.980;2023-05-07T08:46:21;6.68;;;3.80;;
55053;SDS011;40954;45.668;18.980;2023-05-07T08:48:48;7.57;;;3.90;;
55053;SDS011;40954;45.668;18.980;2023-05-07T08:51:18;4.75;;;3.83;;
55053;SDS011;40954;45.668;18.980;2023-05-07T08:53:45;6.28;;;3.70;;
55053;SDS011;40954;45.668;18.980;2023-05-07T08:56:13;5.05;;;3.85;;
55053;SDS011;40954;45.668;18.980;2023-05-07T08:58:40;4.07;;;3.67;;
55053;SDS011;40954;45.668;18.980;2023-05-07T09:01:09;3.70;;;3.00;;
55053;SDS011;40954;45.668;18.980;2023-05-07T09:03:37;5.75;;;3.50;;
55053;SDS011;40954;45.668;18.980;2023-05-07T09:06:04;3.55;;;3.22;;
55053;SDS011;40954;45.668;18.980;2023-05-07T09:08:31;5.15;;;3.40;;
55053;SDS011;40954;45.668;18.980;2023-05-07T09:10:58;5.22;;;3.15;;
55053;SDS011;40954;45.668;18.980;2023-05-07T09:13:24;4.53;;;3.08;;
55053;SDS011;40954;45.668;18.980;2023-05-07T09:15:50;4.65;;;3.08;;
55053;SDS011;40954;45.668;18.980;2023-05-07T09:18:16;3.28;;;2.85;;
55053;SDS011;40954;45.668;18.980;2023-05-07T09:20:42;3.28;;;2.90;;
55053;SDS011;40954;45.668;18.980;2023-05-07T09:23:08;4.38;;;2.92;;
55053;SDS011;40954;45.668;18.980;2023-05-07T09:25:35;4.22;;;3.00;;
55053;SDS011;40954;45.668;18.980;2023-05-07T09:28:01;2.88;;;2.67;;
55053;SDS011;40954;45.668;18.980;2023-05-07T09:30:31;6.05;;;3.25;;
55053;SDS011;40954;45.668;18.980;2023-05-07T09:32:57;4.82;;;2.92;;
55053;SDS011;40954;45.668;18.980;2023-05-07T09:35:24;3.55;;;2.58;;
55053;SDS011;40954;45.668;18.980;2023-05-07T09:37:55;5.30;;;4.63;;
55053;SDS011;40954;45.668;18.980;2023-05-07T09:40:22;10.05;;;4.35;;
55053;SDS011;40954;45.668;18.980;2023-05-07T09:42:48;3.72;;;3.30;;
55053;SDS011;40954;45.668;18.980;2023-05-07T09:45:15;4.90;;;2.80;;
55053;SDS011;40954;45.668;18.980;2023-05-07T09:47:44;2.85;;;2.65;;
55053;SDS011;40954;45.668;18.980;2023-05-07T09:50:10;3.30;;;2.65;;
55053;SDS011;40954;45.668;18.980;2023-05-07T09:52:38;3.67;;;2.90;;
55053;SDS011;40954;45.668;18.980;2023-05-07T09:55:05;3.03;;;2.72;;
55053;SDS011;40954;45.668;18.980;2023-05-07T09:57:31;5.25;;;3.00;;
55053;SDS011;40954;45.668;18.980;2023-05-07T09:59:58;3.20;;;2.90;;
55053;SDS011;40954;45.668;18.980;2023-05-07T10:02:25;6.45;;;2.53;;
55053;SDS011;40954;45.668;18.980;2023-05-07T10:04:54;3.22;;;2.90;;
55053;SDS011;40954;45.668;18.980;2023-05-07T10:07:20;2.83;;;2.63;;
55053;SDS011;40954;45.668;18.980;2023-05-07T10:09:47;2.60;;;2.40;;
55053;SDS011;40954;45.668;18.980;2023-05-07T10:12:13;3.20;;;2.17;;
55053;SDS011;40954;45.668;18.980;2023-05-07T10:14:40;4.13;;;3.30;;
55053;SDS011;40954;45.668;18.980;2023-05-07T10:17:06;3.85;;;2.90;;
55053;SDS011;40954;45.668;18.980;2023-05-07T10:19:32;4.40;;;2.83;;
55053;SDS011;40954;45.668;18.980;2023-05-07T10:22:00;3.17;;;2.85;;
55053;SDS011;40954;45.668;18.980;2023-05-07T10:24:34;3.80;;;2.40;;
55053;SDS011;40954;45.668;18.980;2023-05-07T10:27:02;4.82;;;2.45;;
55053;SDS011;40954;45.668;18.980;2023-05-07T10:29:33;4.80;;;2.88;;
55053;SDS011;40954;45.668;18.980;2023-05-07T10:34:45;4.78;;;2.72;;
55053;SDS011;40954;45.668;18.980;2023-05-07T10:37:12;2.78;;;2.58;;
55053;SDS011;40954;45.668;18.980;2023-05-07T10:39:39;3.10;;;2.83;;
55053;SDS011;40954;45.668;18.980;2023-05-07T10:42:09;13.43;;;3.17;;
55053;SDS011;40954;45.668;18.980;2023-05-07T10:44:35;5.13;;;2.70;;
55053;SDS011;40954;45.668;18.980;2023-05-07T10:47:12;11.63;;;2.75;;
55053;SDS011;40954;45.668;18.980;2023-05-07T10:52:11;4.10;;;3.08;;
55053;SDS011;40954;45.668;18.980;2023-05-07T10:54:39;9.95;;;4.30;;
55053;SDS011;40954;45.668;18.980;2023-05-07T10:59:50;17.15;;;5.40;;
55053;SDS011;40954;45.668;18.980;2023-05-07T11:02:17;10.13;;;4.57;;
55053;SDS011;40954;45.668;18.980;2023-05-07T11:04:43;5.43;;;3.30;;
55053;SDS011;40954;45.668;18.980;2023-05-07T11:15:09;20.83;;;9.32;;
55053;SDS011;40954;45.668;18.980;2023-05-07T11:17:51;25.33;;;10.55;;
55053;SDS011;40954;45.668;18.980;2023-05-07T11:20:18;32.72;;;10.63;;
55053;SDS011;40954;45.668;18.980;2023-05-07T11:22:44;31.00;;;12.82;;
55053;SDS011;40954;45.668;18.980;2023-05-07T11:25:10;27.55;;;12.88;;
55053;SDS011;40954;45.668;18.980;2023-05-07T11:27:42;4.60;;;4.15;;
55053;SDS011;40954;45.668;18.980;2023-05-07T11:30:09;16.00;;;8.77;;
55053;SDS011;40954;45.668;18.980;2023-05-07T11:32:35;21.42;;;10.23;;
55053;SDS011;40954;45.668;18.980;2023-05-07T11:35:01;21.80;;;11.38;;
55053;SDS011;40954;45.668;18.980;2023-05-07T11:37:27;13.70;;;6.40;;
55053;SDS011;40954;45.668;18.980;2023-05-07T11:40:07;8.05;;;4.63;;
55053;SDS011;40954;45.668;18.980;2023-05-07T11:42:39;23.30;;;10.52;;
55053;SDS011;40954;45.668;18.980;2023-05-07T11:45:06;23.33;;;11.18;;
55053;SDS011;40954;45.668;18.980;2023-05-07T11:47:33;13.82;;;4.57;;
55053;SDS011;40954;45.668;18.980;2023-05-07T11:50:03;12.65;;;6.35;;
55053;SDS011;40954;45.668;18.980;2023-05-07T11:52:30;17.90;;;8.38;;
55053;SDS011;40954;45.668;18.980;2023-05-07T11:54:57;16.58;;;7.30;;
55053;SDS011;40954;45.668;18.980;2023-05-07T11:57:24;16.48;;;8.38;;
55053;SDS011;40954;45.668;18.980;2023-05-07T11:59:57;5.30;;;3.13;;
55053;SDS011;40954;45.668;18.980;2023-05-07T12:02:24;6.25;;;5.63;;
55053;SDS011;40954;45.668;18.980;2023-05-07T12:04:51;16.02;;;7.38;;
55053;SDS011;40954;45.668;18.980;2023-05-07T12:07:17;15.18;;;7.68;;
55053;SDS011;40954;45.668;18.980;2023-05-07T12:09:43;10.85;;;7.47;;
55053;SDS011;40954;45.668;18.980;2023-05-07T12:12:10;5.75;;;3.90;;
55053;SDS011;40954;45.668;18.980;2023-05-07T12:14:39;11.25;;;6.93;;
55053;SDS011;40954;45.668;18.980;2023-05-07T12:17:06;10.45;;;5.78;;
55053;SDS011;40954;45.668;18.980;2023-05-07T12:19:33;15.43;;;6.05;;
55053;SDS011;40954;45.668;18.980;2023-05-07T12:21:59;2.92;;;2.60;;
55053;SDS011;40954;45.668;18.980;2023-05-07T12:24:26;26.83;;;6.32;;
55053;SDS011;40954;45.668;18.980;2023-05-07T12:26:52;11.18;;;6.32;;
55053;SDS011;40954;45.668;18.980;2023-05-07T12:29:21;11.20;;;5.35;;
55053;SDS011;40954;45.668;18.980;2023-05-07T12:31:47;6.63;;;4.95;;
55053;SDS011;40954;45.668;18.980;2023-05-07T12:34:17;7.13;;;5.32;;
55053;SDS011;40954;45.668;18.980;2023-05-07T12:36:43;4.57;;;3.20;;
55053;SDS011;40954;45.668;18.980;2023-05-07T12:39:10;13.93;;;4.78;;
55053;SDS011;40954;45.668;18.980;2023-05-07T12:41:43;9.38;;;4.55;;
55053;SDS011;40954;45.668;18.980;2023-05-07T12:44:18;11.18;;;5.15;;
55053;SDS011;40954;45.668;18.980;2023-05-07T12:46:50;12.02;;;5.30;;
55053;SDS011;40954;45.668;18.980;2023-05-07T12:49:21;7.05;;;4.15;;
55053;SDS011;40954;45.668;18.980;2023-05-07T12:51:48;5.07;;;3.13;;
55053;SDS011;40954;45.668;18.980;2023-05-07T12:57:13;7.82;;;4.13;;
55053;SDS011;40954;45.668;18.980;2023-05-07T12:59:40;9.50;;;4.75;;
55053;SDS011;40954;45.668;18.980;2023-05-07T13:02:06;8.10;;;4.53;;
55053;SDS011;40954;45.668;18.980;2023-05-07T13:04:32;6.88;;;4.07;;
55053;SDS011;40954;45.668;18.980;2023-05-07T13:06:59;6.00;;;4.22;;
55053;SDS011;40954;45.668;18.980;2023-05-07T13:09:26;5.97;;;4.10;;
55053;SDS011;40954;45.668;18.980;2023-05-07T13:11:54;8.27;;;3.70;;
55053;SDS011;40954;45.668;18.980;2023-05-07T13:14:21;3.85;;;3.47;;
55053;SDS011;40954;45.668;18.980;2023-05-07T13:16:47;2.85;;;2.53;;
55053;SDS011;40954;45.668;18.980;2023-05-07T13:19:14;4.53;;;3.70;;
55053;SDS011;40954;45.668;18.980;2023-05-07T13:21:40;4.20;;;3.03;;
55053;SDS011;40954;45.668;18.980;2023-05-07T13:24:06;8.43;;;3.65;;
55053;SDS011;40954;45.668;18.980;2023-05-07T13:26:32;2.50;;;2.25;;
55053;SDS011;40954;45.668;18.980;2023-05-07T13:28:58;3.13;;;2.88;;
55053;SDS011;40954;45.668;18.980;2023-05-07T13:31:24;3.55;;;2.22;;
55053;SDS011;40954;45.668;18.980;2023-05-07T13:33:50;4.72;;;2.65;;
55053;SDS011;40954;45.668;18.980;2023-05-07T13:36:17;4.10;;;2.95;;
55053;SDS011;40954;45.668;18.980;2023-05-07T13:38:43;3.92;;;2.95;;
55053;SDS011;40954;45.668;18.980;2023-05-07T13:41:09;3.80;;;2.90;;
55053;SDS011;40954;45.668;18.980;2023-05-07T13:43:38;5.03;;;2.80;;
55053;SDS011;40954;45.668;18.980;2023-05-07T13:46:04;5.35;;;3.25;;
55053;SDS011;40954;45.668;18.980;2023-05-07T13:48:30;3.08;;;2.70;;
55053;SDS011;40954;45.668;18.980;2023-05-07T13:50:56;5.07;;;3.17;;
55053;SDS011;40954;45.668;18.980;2023-05-07T13:53:22;3.05;;;2.75;;
55053;SDS011;40954;45.668;18.980;2023-05-07T13:55:49;11.88;;;3.67;;
55053;SDS011;40954;45.668;18.980;2023-05-07T13:58:15;5.18;;;3.33;;
55053;SDS011;40954;45.668;18.980;2023-05-07T14:00:41;4.22;;;2.58;;
55053;SDS011;40954;45.668;18.980;2023-05-07T14:03:07;7.03;;;3.58;;
55053;SDS011;40954;45.668;18.980;2023-05-07T14:05:33;4.70;;;3.35;;
55053;SDS011;40954;45.668;18.980;2023-05-07T14:08:00;3.97;;;2.88;;
55053;SDS011;40954;45.668;18.980;2023-05-07T14:10:26;9.98;;;2.65;;
55053;SDS011;40954;45.668;18.980;2023-05-07T14:12:52;6.03;;;3.90;;
55053;SDS011;40954;45.668;18.980;2023-05-07T14:15:18;4.55;;;3.10;;
55053;SDS011;40954;45.668;18.980;2023-05-07T14:17:44;3.13;;;2.90;;
55053;SDS011;40954;45.668;18.980;2023-05-07T14:20:11;4.15;;;2.95;;
55053;SDS011;40954;45.668;18.980;2023-05-07T14:22:38;5.97;;;3.20;;
55053;SDS011;40954;45.668;18.980;2023-05-07T14:25:04;4.82;;;3.25;;
55053;SDS011;40954;45.668;18.980;2023-05-07T14:27:31;3.97;;;3.33;;
55053;SDS011;40954;45.668;18.980;2023-05-07T14:29:57;5.50;;;3.80;;
55053;SDS011;40954;45.668;18.980;2023-05-07T14:32:23;5.45;;;2.90;;
55053;SDS011;40954;45.668;18.980;2023-05-07T14:34:49;4.60;;;4.20;;
55053;SDS011;40954;45.668;18.980;2023-05-07T14:37:16;4.30;;;3.40;;
55053;SDS011;40954;45.668;18.980;2023-05-07T14:39:44;3.53;;;3.22;;
55053;SDS011;40954;45.668;18.980;2023-05-07T14:42:10;4.22;;;3.83;;
55053;SDS011;40954;45.668;18.980;2023-05-07T14:44:37;4.07;;;3.67;;